Casper, WY

3:45 PM MDT on October 23, 2014 (GMT -0600)
Casper Mountain Foothills | Change Station
CLOSE
Current Station
Personal Weather Station
Location: Casper, WY
Elevation: 5334 ft
Nearby Weather Stations
Active Advisory: Special Statement

Elev 5334 ft 42.83 °N, 106.31 °W | Updated 4 seconds ago

Clear
Clear
68.1 °F
Feels Like 68.1 °F
N
12.0
Wind Variable Wind from South
Gusts 12.0 mph

Today
High -- | Low -- °F
--% Chance of Precip.
Yesterday
High -- | Low -- °F
Precip. -- in
7:28 AM 6:10 PM
Waning Crescent, 0% visible
Pressure 29.91 in
Visibility 10.0 miles
Clouds Clear
Dew Point 23 °F
Humidity 18%
Rainfall 0.00 in
Snow Depth Not available.
UV 3 out of 12
Pollen 2.80 out of 12
Air Quality Not available.
Flu Activity Sporadic
METAR KCPR 232053Z 23024G33KT 10SM CLR 19/M05 A3002 RMK AO2 PK WND 24034/2017 SLP126 T01941050 56017

More Conditions Fewer Conditions

Pressure 29.91 in
Visibility 10.0 miles
Clouds Clear
Dew Point 23 °F
Humidity 18%
Rainfall 0.00 in
Snow Depth Not available.
UV 3 out of 12
Pollen 2.80 out of 12
Air Quality Not available.
Flu Activity Sporadic
METAR KCPR 232053Z 23024G33KT 10SM CLR 19/M05 A3002 RMK AO2 PK WND 24034/2017 SLP126 T01941050 56017

More Conditions Fewer Conditions

10-Day Weather Forecast

Almanac

Astronomy

Oct. 23, 2014 Rise Set
Actual Time 7:28 AM MDT 6:10 PM MDT
Civil Twilight 6:59 AM MDT 6:39 PM MDT
Nautical Twilight 6:26 AM MDT 7:12 PM MDT
Astronomical Twilight 5:53 AM MDT 7:44 PM MDT
Moon 7:10 AM MDT 6:13 PM MDT
Length of Visible Light 11h 39m
Length of Day
10h 41m
Tomorrow will be 2m 43s shorter.
Waning Crescent, 0% of the Moon is Illuminated
Today
Waning Crescent
Oct 23
New
Oct 30
First Quarter
Nov 6
Full
Nov 14
Last Quarter

Today's Extremes

State Highs State Lows

Community

WunderPhotos

Upload Photos

1,764,381 photos uploaded!

WunderBlogs® & News

Nearby

Snow Depth

Station Depth Elevation
Reno Hill 0 in 8500 ft
Windy Peak 0 in 7900 ft
Middle Powder 0 in 7760 ft
Bear Trap Meadow 0 in 8200 ft
Sand Lake 4 in 10050 ft

Earthquake Activity

City Distance Mag. Time & Date
No recent earthquake activity has been reported nearby.
Minimum magnitude displayed is 2.5.

Coastal Water Temperatures

Place Temperature
No Stations Reporting

Nearby Weather Stations